sensor_id;sensor_type;location;lat;lon;timestamp;P1;durP1;ratioP1;P2;durP2;ratioP2
65583;SDS011;70321;43.592;1.456;2023-07-09T00:02:14;3.08;;;1.60;;
65583;SDS011;70321;43.592;1.456;2023-07-09T00:04:40;4.35;;;1.40;;
65583;SDS011;70321;43.592;1.456;2023-07-09T00:07:08;2.70;;;1.23;;
65583;SDS011;70321;43.592;1.456;2023-07-09T00:09:40;1.95;;;1.33;;
65583;SDS011;70321;43.592;1.456;2023-07-09T00:12:07;2.58;;;1.27;;
65583;SDS011;70321;43.592;1.456;2023-07-09T00:14:39;5.72;;;1.40;;
65583;SDS011;70321;43.592;1.456;2023-07-09T00:17:26;4.60;;;1.30;;
65583;SDS011;70321;43.592;1.456;2023-07-09T00:19:50;2.88;;;1.48;;
65583;SDS011;70321;43.592;1.456;2023-07-09T00:22:17;3.05;;;1.58;;
65583;SDS011;70321;43.592;1.456;2023-07-09T00:24:43;5.03;;;1.70;;
65583;SDS011;70321;43.592;1.456;2023-07-09T00:27:13;2.60;;;1.55;;
65583;SDS011;70321;43.592;1.456;2023-07-09T00:29:41;2.50;;;1.40;;
65583;SDS011;70321;43.592;1.456;2023-07-09T00:32:18;5.47;;;1.40;;
65583;SDS011;70321;43.592;1.456;2023-07-09T00:34:47;3.83;;;1.33;;
65583;SDS011;70321;43.592;1.456;2023-07-09T00:37:14;2.97;;;1.63;;
65583;SDS011;70321;43.592;1.456;2023-07-09T00:39:44;2.63;;;1.60;;
65583;SDS011;70321;43.592;1.456;2023-07-09T00:42:20;2.45;;;1.20;;
65583;SDS011;70321;43.592;1.456;2023-07-09T00:44:52;3.22;;;1.48;;
65583;SDS011;70321;43.592;1.456;2023-07-09T00:47:34;4.05;;;1.75;;
65583;SDS011;70321;43.592;1.456;2023-07-09T00:50:11;2.78;;;1.30;;
65583;SDS011;70321;43.592;1.456;2023-07-09T00:52:54;2.95;;;1.30;;
65583;SDS011;70321;43.592;1.456;2023-07-09T00:55:24;2.60;;;1.50;;
65583;SDS011;70321;43.592;1.456;2023-07-09T00:57:54;2.67;;;1.53;;
65583;SDS011;70321;43.592;1.456;2023-07-09T01:00:31;5.15;;;1.90;;
65583;SDS011;70321;43.592;1.456;2023-07-09T01:03:07;3.42;;;1.40;;
65583;SDS011;70321;43.592;1.456;2023-07-09T01:05:35;2.85;;;1.67;;
65583;SDS011;70321;43.592;1.456;2023-07-09T01:08:02;4.00;;;1.40;;
65583;SDS011;70321;43.592;1.456;2023-07-09T01:10:28;4.03;;;1.52;;
65583;SDS011;70321;43.592;1.456;2023-07-09T01:12:53;2.25;;;1.50;;
65583;SDS011;70321;43.592;1.456;2023-07-09T01:15:19;3.28;;;1.75;;
65583;SDS011;70321;43.592;1.456;2023-07-09T01:17:44;2.58;;;1.23;;
65583;SDS011;70321;43.592;1.456;2023-07-09T01:20:14;4.25;;;1.60;;
65583;SDS011;70321;43.592;1.456;2023-07-09T01:22:46;3.90;;;1.65;;
65583;SDS011;70321;43.592;1.456;2023-07-09T01:25:16;3.55;;;1.80;;
65583;SDS011;70321;43.592;1.456;2023-07-09T01:27:43;3.42;;;1.42;;
65583;SDS011;70321;43.592;1.456;2023-07-09T01:30:17;3.22;;;1.35;;
65583;SDS011;70321;43.592;1.456;2023-07-09T01:32:47;5.53;;;1.70;;
65583;SDS011;70321;43.592;1.456;2023-07-09T01:35:15;5.20;;;1.83;;
65583;SDS011;70321;43.592;1.456;2023-07-09T01:37:42;4.40;;;2.00;;
65583;SDS011;70321;43.592;1.456;2023-07-09T01:40:09;2.72;;;1.50;;
65583;SDS011;70321;43.592;1.456;2023-07-09T01:42:37;4.15;;;1.90;;
65583;SDS011;70321;43.592;1.456;2023-07-09T01:45:04;2.90;;;1.42;;
65583;SDS011;70321;43.592;1.456;2023-07-09T01:47:30;4.00;;;1.70;;
65583;SDS011;70321;43.592;1.456;2023-07-09T01:49:56;3.45;;;1.63;;
65583;SDS011;70321;43.592;1.456;2023-07-09T01:52:26;3.60;;;1.70;;
65583;SDS011;70321;43.592;1.456;2023-07-09T01:54:54;2.20;;;1.35;;
65583;SDS011;70321;43.592;1.456;2023-07-09T01:57:20;3.75;;;1.75;;
65583;SDS011;70321;43.592;1.456;2023-07-09T01:59:51;3.70;;;1.73;;
65583;SDS011;70321;43.592;1.456;2023-07-09T02:02:18;5.10;;;1.85;;
65583;SDS011;70321;43.592;1.456;2023-07-09T02:04:45;2.97;;;1.52;;
65583;SDS011;70321;43.592;1.456;2023-07-09T02:07:11;2.63;;;1.65;;
65583;SDS011;70321;43.592;1.456;2023-07-09T02:09:36;3.10;;;1.80;;
65583;SDS011;70321;43.592;1.456;2023-07-09T02:12:02;3.75;;;1.60;;
65583;SDS011;70321;43.592;1.456;2023-07-09T02:14:28;3.38;;;1.80;;
65583;SDS011;70321;43.592;1.456;2023-07-09T02:16:53;4.95;;;1.65;;
65583;SDS011;70321;43.592;1.456;2023-07-09T02:19:18;2.90;;;1.80;;
65583;SDS011;70321;43.592;1.456;2023-07-09T02:21:44;4.10;;;1.63;;
65583;SDS011;70321;43.592;1.456;2023-07-09T02:24:09;2.85;;;1.70;;
65583;SDS011;70321;43.592;1.456;2023-07-09T02:26:35;4.03;;;1.88;;
65583;SDS011;70321;43.592;1.456;2023-07-09T02:29:00;3.45;;;1.70;;
65583;SDS011;70321;43.592;1.456;2023-07-09T02:31:25;4.40;;;1.52;;
65583;SDS011;70321;43.592;1.456;2023-07-09T02:33:54;4.75;;;1.98;;
65583;SDS011;70321;43.592;1.456;2023-07-09T02:36:20;4.32;;;1.75;;
65583;SDS011;70321;43.592;1.456;2023-07-09T02:38:46;2.67;;;1.50;;
65583;SDS011;70321;43.592;1.456;2023-07-09T02:41:11;2.75;;;1.80;;
65583;SDS011;70321;43.592;1.456;2023-07-09T02:43:37;3.33;;;1.65;;
65583;SDS011;70321;43.592;1.456;2023-07-09T02:46:02;3.58;;;1.70;;
65583;SDS011;70321;43.592;1.456;2023-07-09T02:48:28;3.47;;;1.73;;
65583;SDS011;70321;43.592;1.456;2023-07-09T02:50:53;3.60;;;1.90;;
65583;SDS011;70321;43.592;1.456;2023-07-09T02:53:19;4.85;;;1.88;;
65583;SDS011;70321;43.592;1.456;2023-07-09T02:55:44;4.80;;;1.80;;
65583;SDS011;70321;43.592;1.456;2023-07-09T02:58:10;3.92;;;1.83;;
65583;SDS011;70321;43.592;1.456;2023-07-09T03:00:35;5.68;;;1.85;;
65583;SDS011;70321;43.592;1.456;2023-07-09T03:03:00;4.90;;;1.98;;
65583;SDS011;70321;43.592;1.456;2023-07-09T03:05:26;4.93;;;1.77;;
65583;SDS011;70321;43.592;1.456;2023-07-09T03:07:51;2.78;;;1.63;;
65583;SDS011;70321;43.592;1.456;2023-07-09T03:10:16;3.30;;;1.90;;
65583;SDS011;70321;43.592;1.456;2023-07-09T03:12:42;5.20;;;1.98;;
65583;SDS011;70321;43.592;1.456;2023-07-09T03:15:07;3.75;;;1.90;;
65583;SDS011;70321;43.592;1.456;2023-07-09T03:17:33;4.80;;;2.00;;
65583;SDS011;70321;43.592;1.456;2023-07-09T03:19:58;3.20;;;1.80;;
65583;SDS011;70321;43.592;1.456;2023-07-09T03:22:24;3.80;;;1.67;;
65583;SDS011;70321;43.592;1.456;2023-07-09T03:24:49;3.67;;;2.08;;
65583;SDS011;70321;43.592;1.456;2023-07-09T03:27:14;5.13;;;2.05;;
65583;SDS011;70321;43.592;1.456;2023-07-09T03:29:40;4.75;;;1.60;;
65583;SDS011;70321;43.592;1.456;2023-07-09T03:32:05;3.65;;;1.83;;
65583;SDS011;70321;43.592;1.456;2023-07-09T03:34:31;2.83;;;1.48;;
65583;SDS011;70321;43.592;1.456;2023-07-09T03:36:56;2.30;;;1.63;;
65583;SDS011;70321;43.592;1.456;2023-07-09T03:39:22;3.53;;;1.70;;
65583;SDS011;70321;43.592;1.456;2023-07-09T03:41:47;4.03;;;1.80;;
65583;SDS011;70321;43.592;1.456;2023-07-09T03:44:12;4.28;;;2.05;;
65583;SDS011;70321;43.592;1.456;2023-07-09T03:46:38;4.78;;;1.80;;
65583;SDS011;70321;43.592;1.456;2023-07-09T03:49:03;3.13;;;1.55;;
65583;SDS011;70321;43.592;1.456;2023-07-09T03:51:29;5.20;;;1.85;;
65583;SDS011;70321;43.592;1.456;2023-07-09T03:53:54;4.57;;;2.30;;
65583;SDS011;70321;43.592;1.456;2023-07-09T03:56:20;3.38;;;1.60;;
65583;SDS011;70321;43.592;1.456;2023-07-09T03:58:45;3.08;;;1.70;;
65583;SDS011;70321;43.592;1.456;2023-07-09T04:01:11;5.63;;;1.88;;
65583;SDS011;70321;43.592;1.456;2023-07-09T04:03:37;5.28;;;1.80;;
65583;SDS011;70321;43.592;1.456;2023-07-09T04:06:02;2.90;;;1.92;;
65583;SDS011;70321;43.592;1.456;2023-07-09T04:08:28;2.72;;;1.52;;
65583;SDS011;70321;43.592;1.456;2023-07-09T04:10:54;4.13;;;1.40;;
65583;SDS011;70321;43.592;1.456;2023-07-09T04:13:21;2.03;;;1.35;;
65583;SDS011;70321;43.592;1.456;2023-07-09T04:15:47;2.92;;;1.55;;
65583;SDS011;70321;43.592;1.456;2023-07-09T04:18:13;3.70;;;1.75;;
65583;SDS011;70321;43.592;1.456;2023-07-09T04:20:38;3.15;;;1.77;;
65583;SDS011;70321;43.592;1.456;2023-07-09T04:23:05;3.85;;;1.63;;
65583;SDS011;70321;43.592;1.456;2023-07-09T04:25:31;2.88;;;1.75;;
65583;SDS011;70321;43.592;1.456;2023-07-09T04:27:56;3.28;;;1.80;;
65583;SDS011;70321;43.592;1.456;2023-07-09T04:30:21;3.40;;;1.77;;
65583;SDS011;70321;43.592;1.456;2023-07-09T04:32:47;2.50;;;1.50;;
65583;SDS011;70321;43.592;1.456;2023-07-09T04:35:13;3.33;;;1.65;;
65583;SDS011;70321;43.592;1.456;2023-07-09T04:37:39;2.50;;;1.60;;
65583;SDS011;70321;43.592;1.456;2023-07-09T04:40:06;3.03;;;1.58;;
65583;SDS011;70321;43.592;1.456;2023-07-09T04:42:35;5.05;;;1.70;;
65583;SDS011;70321;43.592;1.456;2023-07-09T04:45:02;4.57;;;1.77;;
65583;SDS011;70321;43.592;1.456;2023-07-09T04:47:28;4.82;;;1.80;;
65583;SDS011;70321;43.592;1.456;2023-07-09T04:49:53;4.72;;;1.80;;
65583;SDS011;70321;43.592;1.456;2023-07-09T04:52:19;4.10;;;2.03;;
65583;SDS011;70321;43.592;1.456;2023-07-09T04:54:44;3.15;;;1.73;;
65583;SDS011;70321;43.592;1.456;2023-07-09T04:57:10;2.42;;;1.67;;
65583;SDS011;70321;43.592;1.456;2023-07-09T04:59:36;2.58;;;1.40;;
65583;SDS011;70321;43.592;1.456;2023-07-09T05:02:01;5.60;;;1.90;;
65583;SDS011;70321;43.592;1.456;2023-07-09T05:04:27;3.53;;;1.73;;
65583;SDS011;70321;43.592;1.456;2023-07-09T05:06:52;3.72;;;1.70;;
65583;SDS011;70321;43.592;1.456;2023-07-09T05:09:18;3.75;;;2.00;;
65583;SDS011;70321;43.592;1.456;2023-07-09T05:11:43;4.82;;;1.70;;
65583;SDS011;70321;43.592;1.456;2023-07-09T05:14:09;2.63;;;1.75;;
65583;SDS011;70321;43.592;1.456;2023-07-09T05:16:34;3.28;;;1.77;;
65583;SDS011;70321;43.592;1.456;2023-07-09T05:19:03;3.33;;;1.40;;
65583;SDS011;70321;43.592;1.456;2023-07-09T05:21:28;2.80;;;1.52;;
65583;SDS011;70321;43.592;1.456;2023-07-09T05:23:53;4.53;;;1.90;;
65583;SDS011;70321;43.592;1.456;2023-07-09T05:26:19;4.85;;;2.00;;
65583;SDS011;70321;43.592;1.456;2023-07-09T05:28:44;4.63;;;2.00;;
65583;SDS011;70321;43.592;1.456;2023-07-09T05:31:10;4.25;;;1.98;;
65583;SDS011;70321;43.592;1.456;2023-07-09T05:33:35;4.32;;;2.03;;
65583;SDS011;70321;43.592;1.456;2023-07-09T05:36:01;3.15;;;1.77;;
65583;SDS011;70321;43.592;1.456;2023-07-09T05:38:27;3.50;;;1.70;;
65583;SDS011;70321;43.592;1.456;2023-07-09T05:41:03;3.42;;;1.60;;
65583;SDS011;70321;43.592;1.456;2023-07-09T05:43:29;3.35;;;1.75;;
65583;SDS011;70321;43.592;1.456;2023-07-09T05:45:55;3.53;;;1.63;;
65583;SDS011;70321;43.592;1.456;2023-07-09T05:48:21;4.93;;;1.95;;
65583;SDS011;70321;43.592;1.456;2023-07-09T05:50:48;4.75;;;1.83;;
65583;SDS011;70321;43.592;1.456;2023-07-09T05:53:14;3.67;;;2.00;;
65583;SDS011;70321;43.592;1.456;2023-07-09T05:55:39;5.15;;;1.77;;
65583;SDS011;70321;43.592;1.456;2023-07-09T05:58:04;3.17;;;1.45;;
65583;SDS011;70321;43.592;1.456;2023-07-09T06:00:30;4.97;;;2.17;;
65583;SDS011;70321;43.592;1.456;2023-07-09T06:02:55;3.33;;;1.60;;
65583;SDS011;70321;43.592;1.456;2023-07-09T06:05:21;6.60;;;2.13;;
65583;SDS011;70321;43.592;1.456;2023-07-09T06:07:46;3.72;;;1.75;;
65583;SDS011;70321;43.592;1.456;2023-07-09T06:10:12;4.43;;;1.88;;
65583;SDS011;70321;43.592;1.456;2023-07-09T06:12:38;4.93;;;1.75;;
65583;SDS011;70321;43.592;1.456;2023-07-09T06:15:05;4.45;;;1.98;;
65583;SDS011;70321;43.592;1.456;2023-07-09T06:17:31;2.55;;;1.58;;
65583;SDS011;70321;43.592;1.456;2023-07-09T06:19:56;3.05;;;1.83;;
65583;SDS011;70321;43.592;1.456;2023-07-09T06:22:22;3.63;;;1.92;;
65583;SDS011;70321;43.592;1.456;2023-07-09T06:24:47;2.80;;;1.50;;
65583;SDS011;70321;43.592;1.456;2023-07-09T06:27:13;3.38;;;2.00;;
65583;SDS011;70321;43.592;1.456;2023-07-09T06:29:38;3.92;;;2.03;;
65583;SDS011;70321;43.592;1.456;2023-07-09T06:32:04;4.05;;;2.10;;
65583;SDS011;70321;43.592;1.456;2023-07-09T06:34:30;5.10;;;2.15;;
65583;SDS011;70321;43.592;1.456;2023-07-09T06:36:56;4.47;;;1.80;;
65583;SDS011;70321;43.592;1.456;2023-07-09T06:39:21;2.90;;;1.83;;
65583;SDS011;70321;43.592;1.456;2023-07-09T06:41:47;3.92;;;2.17;;
65583;SDS011;70321;43.592;1.456;2023-07-09T06:44:13;4.20;;;1.90;;
65583;SDS011;70321;43.592;1.456;2023-07-09T06:46:39;5.78;;;2.40;;
65583;SDS011;70321;43.592;1.456;2023-07-09T06:49:04;4.53;;;2.60;;
65583;SDS011;70321;43.592;1.456;2023-07-09T06:51:33;6.15;;;2.40;;
65583;SDS011;70321;43.592;1.456;2023-07-09T06:53:58;7.35;;;2.75;;
65583;SDS011;70321;43.592;1.456;2023-07-09T06:56:24;7.00;;;2.60;;
65583;SDS011;70321;43.592;1.456;2023-07-09T06:58:49;5.97;;;2.85;;
65583;SDS011;70321;43.592;1.456;2023-07-09T07:01:15;4.38;;;2.83;;
65583;SDS011;70321;43.592;1.456;2023-07-09T07:03:40;6.00;;;3.13;;
65583;SDS011;70321;43.592;1.456;2023-07-09T07:06:06;6.47;;;3.20;;
65583;SDS011;70321;43.592;1.456;2023-07-09T07:08:32;5.32;;;3.13;;
65583;SDS011;70321;43.592;1.456;2023-07-09T07:10:58;5.63;;;2.80;;
65583;SDS011;70321;43.592;1.456;2023-07-09T07:13:34;5.25;;;2.95;;
65583;SDS011;70321;43.592;1.456;2023-07-09T07:16:07;6.22;;;3.22;;
65583;SDS011;70321;43.592;1.456;2023-07-09T07:18:35;6.85;;;3.80;;
65583;SDS011;70321;43.592;1.456;2023-07-09T07:21:00;6.75;;;3.70;;
65583;SDS011;70321;43.592;1.456;2023-07-09T07:23:26;7.25;;;3.15;;
65583;SDS011;70321;43.592;1.456;2023-07-09T07:25:52;7.20;;;3.40;;
65583;SDS011;70321;43.592;1.456;2023-07-09T07:28:18;5.22;;;2.95;;
65583;SDS011;70321;43.592;1.456;2023-07-09T07:30:43;6.70;;;3.58;;
65583;SDS011;70321;43.592;1.456;2023-07-09T07:33:09;7.55;;;3.88;;
65583;SDS011;70321;43.592;1.456;2023-07-09T07:35:35;6.30;;;3.58;;
65583;SDS011;70321;43.592;1.456;2023-07-09T07:38:01;9.48;;;3.67;;
65583;SDS011;70321;43.592;1.456;2023-07-09T07:40:27;6.70;;;4.00;;
65583;SDS011;70321;43.592;1.456;2023-07-09T07:42:52;4.78;;;3.47;;
65583;SDS011;70321;43.592;1.456;2023-07-09T07:45:18;7.28;;;4.07;;
65583;SDS011;70321;43.592;1.456;2023-07-09T07:47:44;9.63;;;3.97;;
65583;SDS011;70321;43.592;1.456;2023-07-09T07:50:09;5.93;;;3.58;;
65583;SDS011;70321;43.592;1.456;2023-07-09T07:52:35;6.22;;;3.85;;
65583;SDS011;70321;43.592;1.456;2023-07-09T07:55:11;6.43;;;3.92;;
65583;SDS011;70321;43.592;1.456;2023-07-09T07:57:36;6.57;;;4.20;;
65583;SDS011;70321;43.592;1.456;2023-07-09T08:00:02;7.32;;;3.92;;
65583;SDS011;70321;43.592;1.456;2023-07-09T08:02:28;7.82;;;3.97;;
65583;SDS011;70321;43.592;1.456;2023-07-09T08:04:53;6.65;;;3.72;;
65583;SDS011;70321;43.592;1.456;2023-07-09T08:07:19;7.88;;;4.00;;
65583;SDS011;70321;43.592;1.456;2023-07-09T08:09:45;7.43;;;3.95;;
65583;SDS011;70321;43.592;1.456;2023-07-09T08:12:14;6.35;;;4.32;;
65583;SDS011;70321;43.592;1.456;2023-07-09T08:14:40;8.10;;;4.00;;
65583;SDS011;70321;43.592;1.456;2023-07-09T08:17:07;7.88;;;4.70;;
65583;SDS011;70321;43.592;1.456;2023-07-09T08:19:43;6.90;;;4.03;;
65583;SDS011;70321;43.592;1.456;2023-07-09T08:22:13;6.15;;;3.92;;
65583;SDS011;70321;43.592;1.456;2023-07-09T08:24:40;5.90;;;4.00;;
65583;SDS011;70321;43.592;1.456;2023-07-09T08:27:06;9.25;;;3.70;;
65583;SDS011;70321;43.592;1.456;2023-07-09T08:29:32;5.38;;;3.60;;
65583;SDS011;70321;43.592;1.456;2023-07-09T08:31:58;7.43;;;3.88;;
65583;SDS011;70321;43.592;1.456;2023-07-09T08:34:23;6.70;;;3.70;;
65583;SDS011;70321;43.592;1.456;2023-07-09T08:36:48;6.00;;;3.63;;
65583;SDS011;70321;43.592;1.456;2023-07-09T08:39:14;5.88;;;3.58;;
65583;SDS011;70321;43.592;1.456;2023-07-09T08:41:45;9.95;;;4.20;;
65583;SDS011;70321;43.592;1.456;2023-07-09T08:49:57;7.95;;;3.97;;
65583;SDS011;70321;43.592;1.456;2023-07-09T08:54:59;6.90;;;4.10;;
65583;SDS011;70321;43.592;1.456;2023-07-09T08:57:35;6.00;;;3.60;;
65583;SDS011;70321;43.592;1.456;2023-07-09T09:03:09;7.38;;;3.95;;
65583;SDS011;70321;43.592;1.456;2023-07-09T09:05:39;6.07;;;3.88;;
65583;SDS011;70321;43.592;1.456;2023-07-09T09:10:57;6.95;;;4.20;;
65583;SDS011;70321;43.592;1.456;2023-07-09T09:13:30;7.32;;;4.05;;
65583;SDS011;70321;43.592;1.456;2023-07-09T09:15:56;8.30;;;4.35;;
65583;SDS011;70321;43.592;1.456;2023-07-09T09:18:29;8.77;;;5.00;;
65583;SDS011;70321;43.592;1.456;2023-07-09T09:23:47;8.98;;;4.40;;
65583;SDS011;70321;43.592;1.456;2023-07-09T09:26:18;7.43;;;4.40;;
65583;SDS011;70321;43.592;1.456;2023-07-09T09:28:47;7.57;;;4.70;;
65583;SDS011;70321;43.592;1.456;2023-07-09T09:31:13;5.80;;;4.07;;
65583;SDS011;70321;43.592;1.456;2023-07-09T09:33:40;6.25;;;4.03;;
65583;SDS011;70321;43.592;1.456;2023-07-09T09:36:11;6.57;;;4.18;;
65583;SDS011;70321;43.592;1.456;2023-07-09T09:38:41;6.00;;;4.03;;
65583;SDS011;70321;43.592;1.456;2023-07-09T09:41:14;5.88;;;4.13;;
65583;SDS011;70321;43.592;1.456;2023-07-09T09:43:42;6.00;;;4.07;;
65583;SDS011;70321;43.592;1.456;2023-07-09T09:46:09;7.97;;;4.35;;
65583;SDS011;70321;43.592;1.456;2023-07-09T09:48:43;5.78;;;3.97;;
65583;SDS011;70321;43.592;1.456;2023-07-09T09:51:11;7.93;;;3.95;;
65583;SDS011;70321;43.592;1.456;2023-07-09T09:53:39;7.18;;;4.22;;
65583;SDS011;70321;43.592;1.456;2023-07-09T09:56:14;6.15;;;4.07;;
65583;SDS011;70321;43.592;1.456;2023-07-09T09:58:43;5.82;;;3.85;;
65583;SDS011;70321;43.592;1.456;2023-07-09T10:01:14;7.72;;;4.85;;
65583;SDS011;70321;43.592;1.456;2023-07-09T10:03:41;6.72;;;4.13;;
65583;SDS011;70321;43.592;1.456;2023-07-09T10:06:19;7.45;;;4.70;;
65583;SDS011;70321;43.592;1.456;2023-07-09T10:11:48;5.88;;;4.20;;
65583;SDS011;70321;43.592;1.456;2023-07-09T10:14:38;7.25;;;4.35;;
65583;SDS011;70321;43.592;1.456;2023-07-09T10:22:31;6.68;;;4.20;;
65583;SDS011;70321;43.592;1.456;2023-07-09T10:25:20;6.32;;;4.00;;
65583;SDS011;70321;43.592;1.456;2023-07-09T10:30:41;7.18;;;4.60;;
65583;SDS011;70321;43.592;1.456;2023-07-09T10:33:11;5.90;;;4.65;;
65583;SDS011;70321;43.592;1.456;2023-07-09T10:41:00;5.80;;;3.95;;
65583;SDS011;70321;43.592;1.456;2023-07-09T10:46:17;7.97;;;4.95;;
65583;SDS011;70321;43.592;1.456;2023-07-09T10:48:48;6.88;;;4.25;;
65583;SDS011;70321;43.592;1.456;2023-07-09T10:51:29;6.80;;;4.13;;
65583;SDS011;70321;43.592;1.456;2023-07-09T10:54:15;8.75;;;4.75;;
65583;SDS011;70321;43.592;1.456;2023-07-09T10:56:43;6.78;;;4.40;;
65583;SDS011;70321;43.592;1.456;2023-07-09T11:01:48;7.25;;;4.80;;
65583;SDS011;70321;43.592;1.456;2023-07-09T11:04:29;6.53;;;4.43;;
65583;SDS011;70321;43.592;1.456;2023-07-09T11:07:16;7.50;;;4.70;;
65583;SDS011;70321;43.592;1.456;2023-07-09T11:09:46;8.07;;;4.47;;
65583;SDS011;70321;43.592;1.456;2023-07-09T11:12:34;7.35;;;4.25;;
65583;SDS011;70321;43.592;1.456;2023-07-09T11:15:04;9.00;;;5.22;;
65583;SDS011;70321;43.592;1.456;2023-07-09T11:17:43;7.07;;;4.60;;
65583;SDS011;70321;43.592;1.456;2023-07-09T11:20:22;8.63;;;4.68;;
65583;SDS011;70321;43.592;1.456;2023-07-09T11:22:54;9.27;;;5.37;;
65583;SDS011;70321;43.592;1.456;2023-07-09T11:25:28;6.45;;;4.60;;
65583;SDS011;70321;43.592;1.456;2023-07-09T11:28:04;8.43;;;4.63;;
65583;SDS011;70321;43.592;1.456;2023-07-09T11:30:30;6.40;;;4.40;;
65583;SDS011;70321;43.592;1.456;2023-07-09T11:32:57;10.05;;;4.40;;
65583;SDS011;70321;43.592;1.456;2023-07-09T11:35:42;6.13;;;4.35;;
65583;SDS011;70321;43.592;1.456;2023-07-09T11:38:22;8.95;;;4.03;;
65583;SDS011;70321;43.592;1.456;2023-07-09T11:40:55;7.38;;;4.07;;
65583;SDS011;70321;43.592;1.456;2023-07-09T11:43:34;6.18;;;4.15;;
65583;SDS011;70321;43.592;1.456;2023-07-09T11:46:11;5.27;;;3.83;;
65583;SDS011;70321;43.592;1.456;2023-07-09T11:48:40;6.22;;;4.25;;
65583;SDS011;70321;43.592;1.456;2023-07-09T11:51:29;9.18;;;4.72;;
65583;SDS011;70321;43.592;1.456;2023-07-09T11:54:03;7.85;;;4.82;;
65583;SDS011;70321;43.592;1.456;2023-07-09T11:56:29;6.28;;;4.18;;
65583;SDS011;70321;43.592;1.456;2023-07-09T11:58:55;7.43;;;4.60;;
65583;SDS011;70321;43.592;1.456;2023-07-09T12:01:43;8.70;;;4.88;;
65583;SDS011;70321;43.592;1.456;2023-07-09T12:04:12;5.88;;;4.03;;
65583;SDS011;70321;43.592;1.456;2023-07-09T12:06:40;6.32;;;4.15;;
65583;SDS011;70321;43.592;1.456;2023-07-09T12:09:05;6.05;;;4.25;;
65583;SDS011;70321;43.592;1.456;2023-07-09T12:11:32;5.65;;;3.92;;
65583;SDS011;70321;43.592;1.456;2023-07-09T12:14:02;5.70;;;4.13;;
65583;SDS011;70321;43.592;1.456;2023-07-09T12:16:38;5.97;;;4.20;;
65583;SDS011;70321;43.592;1.456;2023-07-09T12:19:05;8.27;;;4.60;;
65583;SDS011;70321;43.592;1.456;2023-07-09T12:21:33;7.13;;;4.40;;
65583;SDS011;70321;43.592;1.456;2023-07-09T12:24:01;5.22;;;3.78;;
65583;SDS011;70321;43.592;1.456;2023-07-09T12:26:30;8.70;;;4.40;;
65583;SDS011;70321;43.592;1.456;2023-07-09T12:28:57;6.53;;;4.32;;
65583;SDS011;70321;43.592;1.456;2023-07-09T12:31:27;5.60;;;4.28;;
65583;SDS011;70321;43.592;1.456;2023-07-09T12:33:55;8.27;;;3.88;;
65583;SDS011;70321;43.592;1.456;2023-07-09T12:36:23;5.30;;;4.05;;
65583;SDS011;70321;43.592;1.456;2023-07-09T12:38:50;6.20;;;3.70;;
65583;SDS011;70321;43.592;1.456;2023-07-09T12:41:25;8.18;;;3.85;;
65583;SDS011;70321;43.592;1.456;2023-07-09T12:43:54;6.88;;;4.13;;
65583;SDS011;70321;43.592;1.456;2023-07-09T12:46:20;7.10;;;4.47;;
65583;SDS011;70321;43.592;1.456;2023-07-09T12:48:47;5.45;;;4.03;;
65583;SDS011;70321;43.592;1.456;2023-07-09T12:51:15;6.90;;;4.25;;
65583;SDS011;70321;43.592;1.456;2023-07-09T12:53:44;4.97;;;3.63;;
65583;SDS011;70321;43.592;1.456;2023-07-09T12:56:13;4.75;;;3.55;;
65583;SDS011;70321;43.592;1.456;2023-07-09T12:58:42;4.65;;;3.42;;
65583;SDS011;70321;43.592;1.456;2023-07-09T13:01:08;5.93;;;3.55;;
65583;SDS011;70321;43.592;1.456;2023-07-09T13:03:39;5.97;;;4.03;;
65583;SDS011;70321;43.592;1.456;2023-07-09T13:06:06;5.85;;;3.90;;
65583;SDS011;70321;43.592;1.456;2023-07-09T13:08:48;5.20;;;3.58;;
65583;SDS011;70321;43.592;1.456;2023-07-09T13:11:22;4.93;;;3.58;;
65583;SDS011;70321;43.592;1.456;2023-07-09T13:13:54;5.75;;;3.53;;
65583;SDS011;70321;43.592;1.456;2023-07-09T13:16:24;5.28;;;3.70;;
65583;SDS011;70321;43.592;1.456;2023-07-09T13:18:50;5.80;;;3.47;;
65583;SDS011;70321;43.592;1.456;2023-07-09T13:21:17;6.38;;;3.70;;
65583;SDS011;70321;43.592;1.456;2023-07-09T13:23:44;6.32;;;3.42;;
65583;SDS011;70321;43.592;1.456;2023-07-09T13:26:09;5.65;;;3.53;;
65583;SDS011;70321;43.592;1.456;2023-07-09T13:28:34;4.65;;;3.38;;
65583;SDS011;70321;43.592;1.456;2023-07-09T13:31:21;4.75;;;3.42;;
65583;SDS011;70321;43.592;1.456;2023-07-09T13:33:50;4.38;;;3.38;;
65583;SDS011;70321;43.592;1.456;2023-07-09T13:36:19;4.30;;;3.22;;
65583;SDS011;70321;43.592;1.456;2023-07-09T13:38:44;5.10;;;3.17;;
65583;SDS011;70321;43.592;1.456;2023-07-09T13:41:12;5.55;;;3.20;;
65583;SDS011;70321;43.592;1.456;2023-07-09T13:43:44;7.90;;;3.53;;
65583;SDS011;70321;43.592;1.456;2023-07-09T13:46:11;4.63;;;3.13;;
65583;SDS011;70321;43.592;1.456;2023-07-09T13:48:38;4.85;;;3.05;;
65583;SDS011;70321;43.592;1.456;2023-07-09T13:51:14;4.85;;;3.22;;
65583;SDS011;70321;43.592;1.456;2023-07-09T13:53:42;5.85;;;3.25;;
65583;SDS011;70321;43.592;1.456;2023-07-09T13:56:08;4.72;;;3.00;;
65583;SDS011;70321;43.592;1.456;2023-07-09T13:58:34;5.88;;;3.38;;
65583;SDS011;70321;43.592;1.456;2023-07-09T14:01:00;4.13;;;3.17;;
65583;SDS011;70321;43.592;1.456;2023-07-09T14:03:34;4.57;;;3.40;;
65583;SDS011;70321;43.592;1.456;2023-07-09T14:06:00;4.15;;;2.80;;
65583;SDS011;70321;43.592;1.456;2023-07-09T14:08:26;6.13;;;3.03;;
65583;SDS011;70321;43.592;1.456;2023-07-09T14:10:51;5.95;;;3.58;;
65583;SDS011;70321;43.592;1.456;2023-07-09T14:13:17;4.88;;;2.92;;
65583;SDS011;70321;43.592;1.456;2023-07-09T14:15:46;4.32;;;3.00;;
65583;SDS011;70321;43.592;1.456;2023-07-09T14:18:15;4.80;;;2.75;;
65583;SDS011;70321;43.592;1.456;2023-07-09T14:20:43;5.15;;;2.90;;
65583;SDS011;70321;43.592;1.456;2023-07-09T14:23:12;5.97;;;3.30;;
65583;SDS011;70321;43.592;1.456;2023-07-09T14:25:39;2.95;;;2.33;;
65583;SDS011;70321;43.592;1.456;2023-07-09T14:28:09;4.70;;;3.00;;
65583;SDS011;70321;43.592;1.456;2023-07-09T14:30:37;4.20;;;2.75;;
65583;SDS011;70321;43.592;1.456;2023-07-09T14:33:03;7.28;;;3.28;;
65583;SDS011;70321;43.592;1.456;2023-07-09T14:35:30;5.13;;;2.80;;
65583;SDS011;70321;43.592;1.456;2023-07-09T14:37:55;5.50;;;3.03;;
65583;SDS011;70321;43.592;1.456;2023-07-09T14:40:24;3.97;;;2.90;;
65583;SDS011;70321;43.592;1.456;2023-07-09T14:42:50;5.15;;;3.30;;
65583;SDS011;70321;43.592;1.456;2023-07-09T14:45:20;7.70;;;3.38;;
65583;SDS011;70321;43.592;1.456;2023-07-09T14:47:48;4.15;;;3.03;;
65583;SDS011;70321;43.592;1.456;2023-07-09T14:50:14;4.85;;;3.28;;
65583;SDS011;70321;43.592;1.456;2023-07-09T14:52:40;4.20;;;2.53;;
65583;SDS011;70321;43.592;1.456;2023-07-09T14:55:08;4.25;;;2.90;;
65583;SDS011;70321;43.592;1.456;2023-07-09T14:57:38;5.18;;;2.75;;
65583;SDS011;70321;43.592;1.456;2023-07-09T15:00:03;4.10;;;2.67;;
65583;SDS011;70321;43.592;1.456;2023-07-09T15:04:55;4.78;;;2.60;;
65583;SDS011;70321;43.592;1.456;2023-07-09T15:07:20;4.18;;;2.58;;
65583;SDS011;70321;43.592;1.456;2023-07-09T15:09:46;5.88;;;3.00;;
65583;SDS011;70321;43.592;1.456;2023-07-09T15:12:15;4.47;;;2.95;;
65583;SDS011;70321;43.592;1.456;2023-07-09T15:14:43;5.20;;;2.92;;
65583;SDS011;70321;43.592;1.456;2023-07-09T15:17:12;5.32;;;2.85;;
65583;SDS011;70321;43.592;1.456;2023-07-09T15:19:38;4.18;;;2.90;;
65583;SDS011;70321;43.592;1.456;2023-07-09T15:22:04;4.70;;;3.10;;
65583;SDS011;70321;43.592;1.456;2023-07-09T15:24:33;4.70;;;3.00;;
65583;SDS011;70321;43.592;1.456;2023-07-09T15:27:00;4.85;;;3.08;;
65583;SDS011;70321;43.592;1.456;2023-07-09T15:29:27;5.13;;;3.05;;
65583;SDS011;70321;43.592;1.456;2023-07-09T15:31:53;5.00;;;2.90;;
65583;SDS011;70321;43.592;1.456;2023-07-09T15:34:19;4.30;;;3.03;;
65583;SDS011;70321;43.592;1.456;2023-07-09T15:36:46;4.68;;;3.08;;